Clearwater, FL

5:25 PM EST on November 25, 2014 (GMT -0500)
Whitted | Change Station
CLOSE
Current Station
Airport
Location: St. Petersburg,
Elevation: 7 ft
Nearby Weather Stations

Elev 7 ft 27.77 °N, 82.63 °W | Updated 6 minutes ago

Thunderstorm
Thunderstorm
75 °F
Feels Like 75 °F
N
14
Wind Variable Wind from SSW

Today
High -- | Low -- °F
--% Chance of Precip.
Yesterday
High -- | Low -- °F
Precip. -- in
7:00 AM 5:35 PM
Waxing Crescent, 14% visible
Pressure 29.86 in
Visibility 3.0 miles
Clouds Few 600 ft
Mostly Cloudy 2900 ft
Overcast 5000 ft
Dew Point 73 °F
Humidity 94%
Rainfall 0.35 in
Snow Depth Not available.
UV 0 out of 12
Pollen .50 out of 12
Air Quality Not available.
Flu Activity Not available.
SPECI KSPG 252219Z AUTO 21012KT 3SM -RA BR FEW006 BKN029 OVC050 24/23 A2986 RMK AO2 LTG DSNT W-N RAB2158 P0016 T02390228

More Conditions Fewer Conditions

Pressure 29.86 in
Visibility 3.0 miles
Clouds Few 600 ft
Mostly Cloudy 2900 ft
Overcast 5000 ft
Dew Point 73 °F
Humidity 94%
Rainfall 0.35 in
Snow Depth Not available.
UV 0 out of 12
Pollen .50 out of 12
Air Quality Not available.
Flu Activity Not available.
SPECI KSPG 252219Z AUTO 21012KT 3SM -RA BR FEW006 BKN029 OVC050 24/23 A2986 RMK AO2 LTG DSNT W-N RAB2158 P0016 T02390228

More Conditions Fewer Conditions

10-Day Weather Forecast

Almanac

Astronomy

Nov. 25, 2014 Rise Set
Actual Time
Civil Twilight
Nautical Twilight
Astronomical Twilight
Moon
Length of Visible Light
Length of Day
Tomorrow will be .
, % of the Moon is Illuminated

Today's Extremes

State Highs State Lows

Community

WunderPhotos

Upload Photos

1,773,608 photos uploaded!

WunderBlogs® & News

Nearby

Air Quality

  Air Quality AQ Index Pollutant
Not available.

Snow Depth

Station Depth Elevation

Earthquake Activity

City Distance Mag. Time & Date
Minimum magnitude displayed is 2.5.

Coastal Water Temperatures

Place Temperature

Nearby Weather Stations